Hoegh Berlin — C6XQ4 — position and weather

sailwx.info

Track history (hours):
 
Tides and Currents Weather Stations Pressure Air Temp Water Temp Dewpoint Dewpoint Depression Visibility Wind Speed Wind Dir Waves Ship Positions

Hoegh Berlin

Last reported at 2014-Sep-11 17:18 UTC. Time now 2014-Sep-22 08:16 UTC.
Position N 25°51' E 057°06'.
Warning: this ship's position is 10 days out of date.

Length 228 m; draft 8.6 m.

Type: Cargo ship. MMSI: 311019100.

Date/timePositionNaut miles runAvg speedWind from/ knotsBaromVisibWave heightAir tempDewpointWater temp
2014-Sep-11 17:18N 25°51' E 057°06'2514.5
2014-Sep-11 15:33N 25°31' E 057°23'1414.2
2014-Sep-11 14:33N 25°20' E 057°34'1514.4
2014-Sep-11 13:29N 25°09' E 057°45'1314.4
2014-Sep-11 12:33N 24°58' E 057°55'2914.3
2014-Sep-11 10:33N 24°37' E 058°16'1414.3
2014-Sep-11 09:34N 24°27' E 058°26'9515.1
2014-Sep-11 03:19N 23°16' E 059°35'1114.7
2014-Sep-11 02:33N 23°07' E 059°42'1614.7
2014-Sep-11 01:25N 22°53' E 059°52'  
Track history (hours):
 
Tides and Currents Weather Stations Pressure Air Temp Water Temp Dewpoint Dewpoint Depression Visibility Wind Speed Wind Dir Waves Ship Positions

Hoegh Berlin

Last reported at 2014-Sep-11 17:18 UTC. Time now 2014-Sep-22 08:16 UTC.
Position N 25°51' E 057°06'.
Warning: this ship's position is 10 days out of date.

Length 228 m; draft 8.6 m.

Type: Cargo ship. MMSI: 311019100.

Date/timePositionNaut miles runAvg speedWind from/ knotsBaromVisibWave heightAir tempDewpointWater temp
2014-Sep-11 17:18N 25°51' E 057°06'2514.5
2014-Sep-11 15:33N 25°31' E 057°23'1414.2
2014-Sep-11 14:33N 25°20' E 057°34'1514.4
2014-Sep-11 13:29N 25°09' E 057°45'1314.4
2014-Sep-11 12:33N 24°58' E 057°55'2914.3
2014-Sep-11 10:33N 24°37' E 058°16'1414.3
2014-Sep-11 09:34N 24°27' E 058°26'9515.1
2014-Sep-11 03:19N 23°16' E 059°35'1114.7
2014-Sep-11 02:33N 23°07' E 059°42'1614.7
2014-Sep-11 01:25N 22°53' E 059°52'  

Dump ship's entire track history